createdAt,value
2023-04-08T00:04:43.034Z,13.40
2023-04-08T00:09:44.867Z,11.13
2023-04-08T00:14:46.706Z,11.15
2023-04-08T00:19:48.359Z,11.05
2023-04-08T00:24:50.007Z,11.75
2023-04-08T00:29:51.826Z,11.38
2023-04-08T00:34:53.438Z,11.10
2023-04-08T00:39:55.047Z,11.57
2023-04-08T00:44:56.975Z,10.70
2023-04-08T00:49:58.759Z,11.52
2023-04-08T00:55:00.423Z,10.35
2023-04-08T01:00:05.317Z,10.45
2023-04-08T01:05:12.231Z,11.15
2023-04-08T01:10:19.951Z,12.57
2023-04-08T01:15:22.818Z,11.70
2023-04-08T01:20:26.537Z,12.10
2023-04-08T01:25:32.476Z,10.80
2023-04-08T01:30:35.824Z,12.23
2023-04-08T01:35:37.912Z,11.50
2023-04-08T01:40:41.132Z,11.80
2023-04-08T01:45:45.568Z,10.38
2023-04-08T01:50:47.734Z,11.85
2023-04-08T01:55:55.606Z,11.70
2023-04-08T02:00:59.051Z,11.35
2023-04-08T02:06:00.920Z,10.52
2023-04-08T02:11:03.708Z,12.30
2023-04-08T02:16:33.915Z,10.93
2023-04-08T02:21:43.011Z,10.10
2023-04-08T02:26:46.300Z,11.20
2023-04-08T02:31:50.091Z,9.90
2023-04-08T02:36:52.385Z,9.70
2023-04-08T02:41:54.357Z,10.00
2023-04-08T02:46:57.119Z,8.07
2023-04-08T02:51:58.742Z,7.70
2023-04-08T02:57:00.348Z,7.03
2023-04-08T03:02:02.036Z,7.85
2023-04-08T03:07:03.739Z,6.97
2023-04-08T03:12:05.558Z,6.32
2023-04-08T03:17:07.162Z,6.78
2023-04-08T03:22:09.968Z,7.38
2023-04-08T03:27:12.666Z,7.20
2023-04-08T03:32:14.305Z,6.57
2023-04-08T03:37:15.911Z,8.00
2023-04-08T03:42:18.191Z,6.30
2023-04-08T03:47:19.885Z,5.55
2023-04-08T03:52:21.582Z,6.07
2023-04-08T03:57:23.184Z,5.57
2023-04-08T04:07:26.441Z,4.13
2023-04-08T04:12:28.064Z,4.22
2023-04-08T04:17:29.727Z,4.28
2023-04-08T04:22:31.345Z,5.03
2023-04-08T04:27:32.967Z,5.25
2023-04-08T04:32:34.573Z,5.95
2023-04-08T04:37:36.579Z,4.47
2023-04-08T04:42:38.204Z,5.05
2023-04-08T04:47:40.019Z,5.88
2023-04-08T04:52:41.848Z,5.97
2023-04-08T04:57:44.481Z,6.55
2023-04-08T05:02:46.477Z,6.25
2023-04-08T05:07:48.215Z,6.88
2023-04-08T05:12:49.818Z,7.63
2023-04-08T05:17:51.413Z,7.03
2023-04-08T05:22:53.066Z,7.53
2023-04-08T05:27:54.854Z,7.50
2023-04-08T05:32:59.404Z,7.85
2023-04-08T05:38:01.889Z,7.50
2023-04-08T05:43:03.855Z,7.70
2023-04-08T05:48:05.565Z,6.88
2023-04-08T05:53:07.199Z,7.68
2023-04-08T05:58:09.019Z,7.90
2023-04-08T06:03:11.057Z,9.27
2023-04-08T06:08:12.759Z,8.68
2023-04-08T06:13:14.371Z,9.13
2023-04-08T06:18:17.340Z,8.63
2023-04-08T06:23:18.965Z,9.05
2023-04-08T06:28:20.721Z,9.02
2023-04-08T06:33:22.421Z,9.48
2023-04-08T06:38:24.000Z,9.05
2023-04-08T06:43:25.614Z,9.07
2023-04-08T06:48:33.115Z,9.02
2023-04-08T06:53:34.980Z,11.95
2023-04-08T06:58:36.619Z,10.38
2023-04-08T07:03:38.284Z,12.68
2023-04-08T07:08:39.969Z,13.82
2023-04-08T07:13:41.665Z,14.60
2023-04-08T07:18:43.978Z,15.30
2023-04-08T07:23:45.660Z,16.70
2023-04-08T07:28:47.339Z,16.30
2023-04-08T07:33:48.954Z,17.67
2023-04-08T07:38:50.819Z,17.67
2023-04-08T07:43:52.579Z,17.85
2023-04-08T07:48:54.228Z,14.95
2023-04-08T07:53:56.013Z,16.08
2023-04-08T07:58:57.776Z,14.27
2023-04-08T08:03:59.791Z,13.85
2023-04-08T08:09:01.563Z,11.43
2023-04-08T08:14:04.670Z,11.30
2023-04-08T08:19:07.636Z,11.70
2023-04-08T08:24:09.270Z,11.02
2023-04-08T08:29:11.007Z,10.55
2023-04-08T08:34:12.610Z,10.20
2023-04-08T08:39:14.504Z,11.07
2023-04-08T08:44:16.246Z,10.85
2023-04-08T08:49:17.942Z,10.80
2023-04-08T08:54:19.588Z,9.90
2023-04-08T08:59:21.281Z,9.32
2023-04-08T09:04:23.095Z,9.40
2023-04-08T09:09:26.174Z,9.68
2023-04-08T09:14:27.781Z,9.27
2023-04-08T09:19:29.410Z,9.57
2023-04-08T09:24:31.918Z,9.10
2023-04-08T09:29:37.366Z,7.65
2023-04-08T09:34:41.266Z,8.07
2023-04-08T09:39:42.938Z,8.95
2023-04-08T09:44:46.788Z,9.07
2023-04-08T09:49:55.281Z,9.82
2023-04-08T09:55:12.559Z,9.48
2023-04-08T10:00:16.208Z,9.75
2023-04-08T10:05:18.590Z,10.30
2023-04-08T10:10:21.246Z,10.02
2023-04-08T10:15:29.898Z,10.27
2023-04-08T10:20:34.488Z,10.60
2023-04-08T10:25:41.501Z,10.20
2023-04-08T10:30:47.288Z,10.63
2023-04-08T10:35:53.808Z,12.10
2023-04-08T10:40:56.064Z,11.70
2023-04-08T10:45:57.674Z,11.48
2023-04-08T10:51:04.068Z,10.00
2023-04-08T10:56:08.132Z,9.32
2023-04-08T11:01:09.795Z,10.50
2023-04-08T11:06:11.931Z,9.88
2023-04-08T11:11:14.609Z,8.55
2023-04-08T11:16:18.501Z,8.70
2023-04-08T11:21:22.276Z,8.00
2023-04-08T11:26:25.834Z,10.20
2023-04-08T11:31:27.893Z,10.05
2023-04-08T11:36:30.239Z,10.60
2023-04-08T11:41:39.706Z,11.10
2023-04-08T11:46:42.379Z,13.98
2023-04-08T11:52:00.280Z,13.30
2023-04-08T11:57:03.119Z,13.80
2023-04-08T12:02:04.925Z,14.10
2023-04-08T12:07:06.599Z,15.90
2023-04-08T12:12:08.211Z,17.55
2023-04-08T12:17:09.835Z,16.48
2023-04-08T12:22:12.367Z,17.40
2023-04-08T12:27:13.964Z,16.08
2023-04-08T12:32:16.319Z,17.27
2023-04-08T12:37:18.043Z,16.60
2023-04-08T12:42:19.673Z,19.20
2023-04-08T12:47:21.736Z,17.67
2023-04-08T12:52:24.639Z,19.23
2023-04-08T12:57:27.354Z,18.05
2023-04-08T13:02:29.174Z,19.35
2023-04-08T13:07:31.121Z,19.13
2023-04-08T13:12:33.268Z,20.30
2023-04-08T13:17:34.941Z,19.50
2023-04-08T13:22:36.577Z,19.38
2023-04-08T13:27:38.237Z,20.33
2023-04-08T13:32:39.929Z,18.58
2023-04-08T13:37:42.290Z,19.02
2023-04-08T13:42:43.993Z,17.98
2023-04-08T13:47:45.800Z,17.23
2023-04-08T13:52:47.410Z,18.17
2023-04-08T13:57:49.001Z,16.63
2023-04-08T14:02:51.565Z,15.05
2023-04-08T14:07:53.389Z,15.75
2023-04-08T14:12:55.040Z,16.20
2023-04-08T14:17:57.172Z,13.52
2023-04-08T14:22:58.821Z,13.40
2023-04-08T14:28:00.526Z,13.45
2023-04-08T14:33:02.247Z,13.88
2023-04-08T14:38:04.037Z,14.80
2023-04-08T14:43:05.652Z,14.02
2023-04-08T14:48:07.324Z,14.52
2023-04-08T14:53:08.936Z,14.32
2023-04-08T14:58:10.625Z,12.95
2023-04-08T15:03:12.473Z,11.93
2023-04-08T15:08:14.635Z,12.43
2023-04-08T15:13:16.375Z,14.15
2023-04-08T15:18:17.975Z,13.23
2023-04-08T15:23:19.607Z,12.25
2023-04-08T15:28:21.248Z,12.35
2023-04-08T15:33:22.864Z,11.02
2023-04-08T15:38:24.539Z,12.90
2023-04-08T15:43:26.169Z,12.30
2023-04-08T15:48:27.760Z,11.65
2023-04-08T15:53:29.352Z,13.05
2023-04-08T15:58:31.153Z,13.30
2023-04-08T16:03:33.246Z,12.40
2023-04-08T16:08:35.027Z,13.65
2023-04-08T16:13:39.085Z,13.65
2023-04-08T16:18:42.039Z,15.07
2023-04-08T16:23:43.670Z,16.48
2023-04-08T16:28:45.349Z,16.55
2023-04-08T16:33:47.457Z,16.45
2023-04-08T16:38:49.183Z,18.23
2023-04-08T16:43:51.630Z,18.05
2023-04-08T16:48:53.493Z,18.52
2023-04-08T16:53:57.896Z,17.58
2023-04-08T16:59:00.348Z,18.20
2023-04-08T17:04:01.995Z,17.67
2023-04-08T17:09:04.074Z,17.98
2023-04-08T17:14:06.199Z,17.08
2023-04-08T17:19:07.820Z,18.55
2023-04-08T17:24:09.435Z,18.88
2023-04-08T17:29:11.238Z,17.67
2023-04-08T17:34:12.830Z,16.80
2023-04-08T17:39:14.424Z,18.02
2023-04-08T17:44:16.040Z,18.75
2023-04-08T17:49:18.602Z,19.20
2023-04-08T17:54:20.849Z,18.48
2023-04-08T17:59:22.532Z,18.23
2023-04-08T18:04:24.254Z,19.98
2023-04-08T18:09:25.883Z,20.75
2023-04-08T18:14:30.775Z,21.55
2023-04-08T18:19:32.491Z,21.98
2023-04-08T18:24:34.171Z,22.05
2023-04-08T18:29:36.060Z,19.85
2023-04-08T18:34:38.964Z,22.58
2023-04-08T18:39:41.081Z,21.20
2023-04-08T18:44:43.161Z,23.73
2023-04-08T18:49:44.772Z,21.88
2023-04-08T18:54:48.949Z,24.08
2023-04-08T18:59:50.782Z,21.92
2023-04-08T19:04:52.634Z,22.63
2023-04-08T19:09:58.586Z,21.25
2023-04-08T19:15:00.387Z,21.92
2023-04-08T19:20:03.231Z,22.23
2023-04-08T19:25:05.244Z,21.75
2023-04-08T19:30:07.387Z,25.65
2023-04-08T19:35:11.904Z,28.13
2023-04-08T19:40:13.563Z,24.20
2023-04-08T19:45:15.840Z,22.35
2023-04-08T19:50:17.425Z,21.70
2023-04-08T19:55:19.265Z,19.98
2023-04-08T20:00:21.309Z,20.17
2023-04-08T20:05:22.920Z,20.95
2023-04-08T20:10:24.552Z,20.00
2023-04-08T20:15:26.187Z,20.58
2023-04-08T20:20:29.905Z,21.42
2023-04-08T20:25:32.344Z,20.77
2023-04-08T20:30:33.952Z,20.42
2023-04-08T20:35:37.460Z,19.33
2023-04-08T20:40:44.151Z,20.92
2023-04-08T20:45:45.790Z,21.70
2023-04-08T20:50:50.531Z,23.27
2023-04-08T20:55:52.441Z,24.60
2023-04-08T21:00:54.306Z,24.33
2023-04-08T21:05:56.331Z,25.00
2023-04-08T21:10:58.146Z,25.05
2023-04-08T21:15:59.774Z,25.42
2023-04-08T21:21:01.630Z,26.50
2023-04-08T21:26:03.670Z,24.95
2023-04-08T21:31:12.580Z,24.50
2023-04-08T21:36:14.606Z,24.20
2023-04-08T21:41:17.263Z,24.85
2023-04-08T21:46:18.911Z,26.70
2023-04-08T21:51:20.604Z,26.27
2023-04-08T21:56:22.397Z,26.20
2023-04-08T22:01:24.130Z,27.02
2023-04-08T22:06:32.053Z,30.70
2023-04-08T22:11:34.417Z,27.75
2023-04-08T22:16:36.773Z,31.02
2023-04-08T22:21:38.393Z,31.77
2023-04-08T22:26:40.009Z,28.92
2023-04-08T22:31:41.694Z,28.83
2023-04-08T22:36:43.271Z,27.88
2023-04-08T22:41:46.766Z,30.88
2023-04-08T22:46:48.400Z,29.20
2023-04-08T22:51:50.002Z,28.17
2023-04-08T22:56:51.678Z,29.23
2023-04-08T23:01:53.367Z,31.92
2023-04-08T23:06:55.114Z,27.30
2023-04-08T23:11:57.454Z,28.00
2023-04-08T23:16:59.128Z,27.88
2023-04-08T23:22:00.766Z,29.55
2023-04-08T23:27:02.544Z,31.45
2023-04-08T23:32:04.359Z,29.75
2023-04-08T23:37:06.032Z,28.60
2023-04-08T23:42:07.631Z,31.42
2023-04-08T23:47:09.381Z,28.73
2023-04-08T23:52:11.060Z,29.55
2023-04-08T23:57:12.644Z,28.73
